• Join FlightAware (Why Join?)
  • Login
  • US Flag 
10:14AM EDT


 

Airport Tracker/Info


-or-


 

Live Flight TrackerFlight Track Log ✈ SWA2131 ✈ 13-Apr-2013 ✈ KLAS - KSAN

Flight Track Log - Related Links

Times and Time Zones

All times are in EDT time to prevent confusion due to time zone crossing. See the SWA2131 flight status page for this flight to view local times or setup timezone preferences in your user account.

Time Position Orientation Groundspeed Altitude Reporting Facility
EDT Latitude Longitude Course Direction KTS MPH feet Rate Location/Type
11:30AM 36.0761 -115.1683 263° West 154 177 3,400  Level Los Angeles Center
11:31AM 36.0681 -115.2506 263° West 226 260 5,500 1,920 Climbing Los Angeles Center
11:32AM 36.0317 -115.2725 206° Southwest 256 295 6,900 1,260 Climbing Los Angeles Center
11:33AM 35.9586 -115.3033 199° South 273 314 7,600 1,860 Climbing Los Angeles Center
11:34AM 35.8819 -115.3125 186° South 274 315 10,800 3,120 Climbing Los Angeles Center
11:35AM 35.7875 -115.3069 177° South 310 357 14,100 3,240 Climbing Los Angeles Center
11:36AM 35.6869 -115.2944 174° South 340 391 17,500 3,240 Climbing Los Angeles Center
11:37AM 35.5794 -115.2936 180° South 362 417 20,800 2,760 Climbing Los Angeles Center
11:38AM 35.4644 -115.3025 184° South 388 447 23,300 3,120 Climbing Los Angeles Center
11:39AM 35.3275 -115.3500 196° South 415 478 27,300 2,280 Climbing Los Angeles Center
11:40AM 35.2167 -115.3889 196° South 414 476 28,000 300 Climbing Los Angeles Center
11:41AM 35.1075 -115.4253 195° South 413 475 28,000  Level Los Angeles Center
11:42AM 34.9950 -115.4611 195° South 414 476 28,000  Level Los Angeles Center
11:43AM 34.8811 -115.4981 195° South 415 478 28,000  Level Los Angeles Center
11:44AM 34.7694 -115.5342 195° South 415 478 28,000  Level Los Angeles Center
11:45AM 34.6578 -115.5717 195° South 420 483 28,000  Level Los Angeles Center
11:46AM 34.5461 -115.6078 195° South 417 480 28,000  Level Los Angeles Center
11:47AM 34.4106 -115.6536 196° South 420 483 28,000  Level Los Angeles Center
11:48AM 34.3114 -115.6878 196° South 418 481 28,000  Level Los Angeles Center
11:49AM 34.1986 -115.7231 195° South 417 480 28,000  Level Los Angeles Center
11:50AM 34.0661 -115.7650 195° South 413 475 28,000  Level Los Angeles Center
11:51AM 33.9544 -115.8006 195° South 415 478 28,000 -300 Level Los Angeles Center
11:52AM 33.8422 -115.8378 195° South 416 479 27,500 -720 Descending Los Angeles Center
11:53AM 33.7311 -115.8739 195° South 415 478 26,600 -960 Descending Los Angeles Center
11:54AM 33.6164 -115.9100 195° South 423 487 25,600 -1,260 Descending Los Angeles Center
11:55AM 33.5072 -115.9531 198° South 417 480 24,100 -1,380 Descending Los Angeles Center
11:56AM 33.4194 -116.0372 219° Southwest 411 473 22,800 -1,860 Descending Los Angeles Center
11:57AM 33.3194 -116.1358 220° Southwest 389 448 20,300 -2,220 Descending Los Angeles Center
11:58AM 33.2233 -116.2306 220° Southwest 378 435 17,800 -2,040 Descending Los Angeles Center
12:00PM 33.1472 -116.3056 220° Southwest 361 415 15,700 -2,100 Descending Los Angeles Center
12:01PM 33.0706 -116.3797 219° Southwest 357 411 13,500 -1,860 Descending Los Angeles Center
12:02PM 32.9844 -116.4550 216° Southwest 342 394 12,000 -1,140 Descending Los Angeles Center
12:03PM 32.9036 -116.5025 206° Southwest 327 376 11,200 -900 Descending Los Angeles Center
12:04PM 32.8317 -116.5589 213° Southwest 318 366 10,200 -1,020 Descending Los Angeles Center
12:05PM 32.7942 -116.6369 240° Southwest 289 333 9,200 -1,200 Descending Los Angeles Center
12:06PM 32.7567 -116.7131 240° Southwest 271 312 7,800 -1,440 Descending Los Angeles Center
12:07PM 32.7217 -116.7878 241° Southwest 263 303 6,300 -1,380 Descending Los Angeles Center
12:08PM 32.6833 -116.8833 245° Southwest 243 280 4,900 -1,140 Descending Southern California TRACON
12:09PM 32.6833 -116.9500 270° West 221 254 4,000 -960 Descending Southern California TRACON
12:10PM 32.6833 -117.0167 270° West 192 221 3,100 -1,020 Descending Southern California TRACON
12:11PM 32.7000 -117.0667 292° West 157 181 2,100 -900 Descending Southern California TRACON
12:12PM 32.7167 -117.1000 301° West 143 165 1,300 -780 Descending Southern California TRACON
12:13PM 32.7167 -117.1500 270° West 131 151 700 -720 Descending Southern California TRACON
12:13PM 32.7256 -117.1547 336° Northwest 145 167 500 -420 Descending Los Angeles Center
12:14PM 32.7372 -117.2050 285° West 142 163 200 -300 Descending Los Angeles Center
12:16PM 32.7333 -117.1833 90° East  Level FlightAware Approximate